createdAt,value
2022-12-14T00:00:22.921Z,-7.09
2022-12-14T00:05:22.769Z,-7.07
2022-12-14T00:10:22.726Z,-7.10
2022-12-14T00:15:22.648Z,-7.09
2022-12-14T00:20:22.593Z,-7.13
2022-12-14T00:25:22.523Z,-7.21
2022-12-14T00:30:22.471Z,-7.21
2022-12-14T00:35:22.400Z,-7.13
2022-12-14T00:40:22.351Z,-7.07
2022-12-14T00:45:22.276Z,-7.06
2022-12-14T00:50:22.225Z,-7.14
2022-12-14T00:55:22.155Z,-7.17
2022-12-14T01:00:22.112Z,-7.09
2022-12-14T01:05:22.033Z,-7.07
2022-12-14T01:10:21.989Z,-7.10
2022-12-14T01:15:21.909Z,-7.06
2022-12-14T01:20:21.871Z,-6.99
2022-12-14T01:25:21.787Z,-6.96
2022-12-14T01:30:21.743Z,-6.96
2022-12-14T01:35:21.667Z,-7.03
2022-12-14T01:40:21.610Z,-7.07
2022-12-14T01:45:21.548Z,-7.10
2022-12-14T01:50:21.489Z,-7.07
2022-12-14T01:55:21.422Z,-7.03
2022-12-14T02:00:21.367Z,-6.92
2022-12-14T02:05:21.300Z,-6.86
2022-12-14T02:10:21.243Z,-6.80
2022-12-14T02:15:21.173Z,-6.71
2022-12-14T02:20:21.110Z,-6.74
2022-12-14T02:25:21.063Z,-6.80
2022-12-14T02:30:20.990Z,-6.83
2022-12-14T02:35:20.935Z,-6.86
2022-12-14T02:40:20.869Z,-6.95
2022-12-14T02:45:20.812Z,-6.93
2022-12-14T02:50:20.745Z,-6.92
2022-12-14T02:55:20.690Z,-6.85
2022-12-14T03:00:20.623Z,-6.80
2022-12-14T03:05:20.583Z,-6.77
2022-12-14T03:10:20.500Z,-6.77
2022-12-14T03:15:20.453Z,-6.80
2022-12-14T03:20:20.376Z,-6.78
2022-12-14T03:25:20.331Z,-6.74
2022-12-14T03:30:37.214Z,-6.71
2022-12-14T03:35:21.248Z,-6.77
2022-12-14T03:40:20.128Z,-6.77
2022-12-14T03:45:20.075Z,-6.73
2022-12-14T03:50:20.004Z,-6.68
2022-12-14T03:55:19.951Z,-6.62
2022-12-14T04:00:19.883Z,-6.60
2022-12-14T04:05:19.829Z,-6.62
2022-12-14T04:10:19.761Z,-6.67
2022-12-14T04:15:19.706Z,-6.85
2022-12-14T04:20:19.637Z,-6.98
2022-12-14T04:25:19.592Z,-6.99
2022-12-14T04:30:19.523Z,-7.02
2022-12-14T04:35:19.470Z,-7.06
2022-12-14T04:40:19.394Z,-7.12
2022-12-14T04:45:19.344Z,-7.32
2022-12-14T04:50:19.268Z,-7.56
2022-12-14T04:55:19.201Z,-7.64
2022-12-14T05:00:19.131Z,-7.64
2022-12-14T05:05:19.096Z,-7.64
2022-12-14T05:10:19.016Z,-7.72
2022-12-14T05:15:18.966Z,-7.79
2022-12-14T05:20:18.886Z,-7.79
2022-12-14T05:25:18.842Z,-7.86
2022-12-14T05:30:18.763Z,-7.91
2022-12-14T05:35:18.720Z,-7.97
2022-12-14T05:40:18.640Z,-7.99
2022-12-14T05:45:18.586Z,-7.96
2022-12-14T05:50:18.521Z,-8.02
2022-12-14T05:55:18.478Z,-8.07
2022-12-14T06:00:18.396Z,-8.17
2022-12-14T06:05:18.343Z,-8.18
2022-12-14T06:10:18.277Z,-8.24
2022-12-14T06:15:18.218Z,-8.27
2022-12-14T06:20:18.155Z,-8.28
2022-12-14T06:25:18.139Z,-8.24
2022-12-14T06:30:18.030Z,-8.21
2022-12-14T06:35:17.986Z,-8.20
2022-12-14T06:40:17.905Z,-8.17
2022-12-14T06:45:17.862Z,-8.14
2022-12-14T06:50:17.789Z,-8.14
2022-12-14T06:55:17.740Z,-8.12
2022-12-14T07:00:17.669Z,-8.09
2022-12-14T07:05:17.620Z,-8.06
2022-12-14T07:10:17.542Z,-7.99
2022-12-14T07:15:17.488Z,-7.97
2022-12-14T07:20:17.418Z,-7.93
2022-12-14T07:25:17.378Z,-7.88
2022-12-14T07:30:17.297Z,-7.79
2022-12-14T07:35:17.243Z,-7.70
2022-12-14T07:40:17.173Z,-7.58
2022-12-14T07:45:17.122Z,-7.49
2022-12-14T07:50:17.055Z,-7.33
2022-12-14T07:55:16.999Z,-7.20
2022-12-14T08:00:16.956Z,-7.04
2022-12-14T08:05:16.876Z,-6.92
2022-12-14T08:10:16.809Z,-6.80
2022-12-14T08:15:16.754Z,-6.64
2022-12-14T08:20:16.683Z,-6.47
2022-12-14T08:25:16.642Z,-6.35
2022-12-14T08:30:16.570Z,-6.20
2022-12-14T08:35:16.516Z,-6.08
2022-12-14T08:40:16.439Z,-5.95
2022-12-14T08:45:16.395Z,-5.77
2022-12-14T08:50:16.318Z,-5.38
2022-12-14T08:55:16.272Z,-5.09
2022-12-14T09:00:16.193Z,-4.77
2022-12-14T09:05:16.137Z,-4.52
2022-12-14T09:10:16.070Z,-4.33
2022-12-14T09:15:16.015Z,-4.13
2022-12-14T09:20:15.945Z,-3.88
2022-12-14T09:25:15.896Z,-3.70
2022-12-14T09:30:15.830Z,-3.52
2022-12-14T09:35:15.767Z,-3.38
2022-12-14T09:40:15.694Z,-3.35
2022-12-14T09:45:15.650Z,-3.23
2022-12-14T09:50:15.576Z,-3.22
2022-12-14T09:55:15.524Z,-3.19
2022-12-14T10:00:15.464Z,-3.12
2022-12-14T10:05:15.400Z,-2.98
2022-12-14T10:10:15.320Z,-2.97
2022-12-14T10:15:15.277Z,-2.85
2022-12-14T10:20:15.205Z,-2.68
2022-12-14T10:25:15.149Z,-2.58
2022-12-14T10:30:15.080Z,-2.54
2022-12-14T10:35:15.015Z,-2.55
2022-12-14T10:40:24.669Z,-2.59
2022-12-14T10:45:39.865Z,-2.64
2022-12-14T10:50:15.942Z,-2.61
2022-12-14T10:55:14.768Z,-2.61
2022-12-14T11:00:22.604Z,-2.59
2022-12-14T11:05:14.639Z,-2.59
2022-12-14T11:10:14.762Z,-2.64
2022-12-14T11:15:14.511Z,-2.54
2022-12-14T11:20:14.521Z,-2.54
2022-12-14T11:25:14.396Z,-2.51
2022-12-14T11:30:14.314Z,-2.51
2022-12-14T11:35:14.260Z,-2.46
2022-12-14T11:40:14.201Z,-2.39
2022-12-14T11:45:14.133Z,-2.30
2022-12-14T11:50:14.075Z,-2.15
2022-12-14T11:55:14.007Z,-2.07
2022-12-14T12:00:13.945Z,-1.87
2022-12-14T12:05:13.880Z,-1.69
2022-12-14T12:10:13.828Z,-1.58
2022-12-14T12:15:13.750Z,-1.46
2022-12-14T12:20:13.683Z,-1.40
2022-12-14T12:25:26.576Z,-1.32
2022-12-14T12:30:14.684Z,-1.19
2022-12-14T12:35:13.498Z,-1.22
2022-12-14T12:40:13.432Z,-1.34
2022-12-14T12:45:13.376Z,-1.34
2022-12-14T12:50:13.308Z,-1.42
2022-12-14T12:55:13.253Z,-1.49
2022-12-14T13:00:13.194Z,-1.64
2022-12-14T13:05:44.483Z,-1.69
2022-12-14T13:10:14.094Z,-1.76
2022-12-14T13:15:13.016Z,-1.83
2022-12-14T13:20:12.942Z,-1.86
2022-12-14T13:25:12.881Z,-1.92
2022-12-14T13:30:12.817Z,-1.97
2022-12-14T13:35:12.754Z,-2.01
2022-12-14T13:40:12.686Z,-2.07
2022-12-14T13:45:12.644Z,-2.10
2022-12-14T13:50:35.438Z,-2.13
2022-12-14T13:55:13.539Z,-2.19
2022-12-14T14:00:12.432Z,-2.25
2022-12-14T14:05:12.376Z,-2.30
2022-12-14T14:10:12.306Z,-2.43
2022-12-14T14:15:12.251Z,-2.52
2022-12-14T14:20:12.191Z,-2.55
2022-12-14T14:25:12.126Z,-2.57
2022-12-14T14:30:12.066Z,-2.59
2022-12-14T14:35:11.998Z,-2.70
2022-12-14T14:40:26.161Z,-2.75
2022-12-14T14:45:12.902Z,-2.76
2022-12-14T14:50:11.811Z,-2.79
2022-12-14T14:55:43.603Z,-2.77
2022-12-14T15:00:12.702Z,-2.76
2022-12-14T15:05:41.062Z,-2.80
2022-12-14T15:10:16.438Z,-2.80
2022-12-14T15:15:11.495Z,-2.82
2022-12-14T15:20:11.423Z,-2.87
2022-12-14T15:25:11.368Z,-2.83
2022-12-14T15:30:11.300Z,-2.85
2022-12-14T15:35:11.241Z,-2.90
2022-12-14T15:40:11.168Z,-2.97
2022-12-14T15:45:11.117Z,-3.02
2022-12-14T15:50:11.043Z,-3.07
2022-12-14T15:55:10.987Z,-3.12
2022-12-14T16:00:10.919Z,-3.12
2022-12-14T16:05:10.937Z,-3.09
2022-12-14T16:10:10.791Z,-3.06
2022-12-14T16:15:10.735Z,-3.07
2022-12-14T16:20:10.664Z,-3.04
2022-12-14T16:25:10.618Z,-3.00
2022-12-14T16:30:10.539Z,-3.02
2022-12-14T16:35:10.491Z,-3.00
2022-12-14T16:40:16.156Z,-3.02
2022-12-14T16:45:10.377Z,-3.07
2022-12-14T16:50:17.682Z,-3.10
2022-12-14T16:55:11.261Z,-3.16
2022-12-14T17:00:10.157Z,-3.17
2022-12-14T17:05:10.102Z,-3.17
2022-12-14T17:10:10.030Z,-3.19
2022-12-14T17:15:09.976Z,-3.17
2022-12-14T17:20:13.814Z,-3.13
2022-12-14T17:25:09.848Z,-3.12
2022-12-14T17:30:09.780Z,-3.13
2022-12-14T17:35:09.722Z,-3.19
2022-12-14T17:40:09.651Z,-3.25
2022-12-14T17:45:09.603Z,-3.33
2022-12-14T17:50:09.525Z,-3.41
2022-12-14T17:55:09.478Z,-3.49
2022-12-14T18:00:09.539Z,-3.64
2022-12-14T18:05:09.353Z,-3.77
2022-12-14T18:10:09.269Z,-3.77
2022-12-14T18:15:09.224Z,-3.73
2022-12-14T18:20:09.190Z,-3.67
2022-12-14T18:25:09.206Z,-3.73
2022-12-14T18:30:09.016Z,-3.77
2022-12-14T18:35:08.971Z,-3.76
2022-12-14T18:40:08.891Z,-3.73
2022-12-14T18:45:08.847Z,-3.70
2022-12-14T18:50:08.772Z,-3.66
2022-12-14T18:55:08.781Z,-3.66
2022-12-14T19:00:08.640Z,-3.67
2022-12-14T19:05:08.586Z,-3.72
2022-12-14T19:10:08.519Z,-3.76
2022-12-14T19:15:08.458Z,-3.84
2022-12-14T19:20:08.387Z,-3.90
2022-12-14T19:25:08.333Z,-3.97
2022-12-14T19:30:08.267Z,-4.05
2022-12-14T19:35:08.209Z,-4.15
2022-12-14T19:40:13.292Z,-4.21
2022-12-14T19:45:08.094Z,-4.27
2022-12-14T19:50:08.030Z,-4.31
2022-12-14T19:55:07.969Z,-4.31
2022-12-14T20:00:07.891Z,-4.42
2022-12-14T20:05:07.842Z,-4.55
2022-12-14T20:10:07.764Z,-4.79
2022-12-14T20:15:07.715Z,-5.05
2022-12-14T20:20:07.634Z,-5.23
2022-12-14T20:25:07.581Z,-5.38
2022-12-14T20:30:07.511Z,-5.44
2022-12-14T20:35:07.457Z,-5.48
2022-12-14T20:40:07.386Z,-5.52
2022-12-14T20:45:07.699Z,-5.53
2022-12-14T20:50:07.264Z,-5.52
2022-12-14T20:55:07.207Z,-5.46
2022-12-14T21:00:07.145Z,-5.50
2022-12-14T21:05:07.084Z,-5.67
2022-12-14T21:10:07.015Z,-5.90
2022-12-14T21:15:06.962Z,-5.97
2022-12-14T21:20:06.887Z,-6.00
2022-12-14T21:25:07.527Z,-5.97
2022-12-14T21:30:06.766Z,-5.97
2022-12-14T21:35:06.720Z,-6.00
2022-12-14T21:40:06.669Z,-6.03
2022-12-14T21:45:06.586Z,-6.10
2022-12-14T21:50:06.525Z,-6.14
2022-12-14T21:55:06.461Z,-6.15
2022-12-14T22:00:06.412Z,-6.18
2022-12-14T22:05:06.340Z,-6.28
2022-12-14T22:10:06.276Z,-6.34
2022-12-14T22:15:06.217Z,-6.35
2022-12-14T22:20:06.146Z,-6.36
2022-12-14T22:25:06.088Z,-6.42
2022-12-14T22:30:06.019Z,-6.44
2022-12-14T22:35:05.967Z,-6.47
2022-12-14T22:40:05.894Z,-6.53
2022-12-14T22:45:05.840Z,-6.54
2022-12-14T22:50:05.769Z,-6.60
2022-12-14T22:55:05.715Z,-6.68
2022-12-14T23:00:05.656Z,-6.71
2022-12-14T23:05:05.595Z,-6.75
2022-12-14T23:10:05.532Z,-6.73
2022-12-14T23:15:05.469Z,-6.71
2022-12-14T23:20:05.416Z,-6.67
2022-12-14T23:25:05.345Z,-6.62
2022-12-14T23:30:05.286Z,-6.65
2022-12-14T23:35:05.221Z,-6.71
2022-12-14T23:40:05.175Z,-6.75
2022-12-14T23:45:05.092Z,-6.77
2022-12-14T23:50:05.058Z,-6.85
2022-12-14T23:55:04.970Z,-6.92
